sensor_id;sensor_type;location;lat;lon;timestamp;P1;durP1;ratioP1;P2;durP2;ratioP2
38513;SDS011;24282;48.400;10.808;2023-09-12T00:01:05;5.95;;;5.13;;
38513;SDS011;24282;48.400;10.808;2023-09-12T00:03:32;7.22;;;5.25;;
38513;SDS011;24282;48.400;10.808;2023-09-12T00:05:59;6.07;;;5.13;;
38513;SDS011;24282;48.400;10.808;2023-09-12T00:08:26;5.55;;;5.05;;
38513;SDS011;24282;48.400;10.808;2023-09-12T00:11:25;7.45;;;4.88;;
38513;SDS011;24282;48.400;10.808;2023-09-12T00:13:44;6.38;;;4.78;;
38513;SDS011;24282;48.400;10.808;2023-09-12T00:16:10;5.95;;;4.45;;
38513;SDS011;24282;48.400;10.808;2023-09-12T00:18:39;8.32;;;4.93;;
38513;SDS011;24282;48.400;10.808;2023-09-12T00:21:05;6.43;;;4.90;;
38513;SDS011;24282;48.400;10.808;2023-09-12T00:23:30;7.10;;;5.03;;
38513;SDS011;24282;48.400;10.808;2023-09-12T00:25:56;5.65;;;5.05;;
38513;SDS011;24282;48.400;10.808;2023-09-12T00:28:23;6.72;;;5.13;;
38513;SDS011;24282;48.400;10.808;2023-09-12T00:30:48;6.43;;;4.68;;
38513;SDS011;24282;48.400;10.808;2023-09-12T00:33:17;6.00;;;4.60;;
38513;SDS011;24282;48.400;10.808;2023-09-12T00:35:43;5.78;;;5.10;;
38513;SDS011;24282;48.400;10.808;2023-09-12T00:38:09;5.18;;;4.68;;
38513;SDS011;24282;48.400;10.808;2023-09-12T00:40:35;5.40;;;4.82;;
38513;SDS011;24282;48.400;10.808;2023-09-12T00:43:02;8.20;;;5.35;;
38513;SDS011;24282;48.400;10.808;2023-09-12T00:45:28;6.30;;;5.20;;
38513;SDS011;24282;48.400;10.808;2023-09-12T00:47:54;6.32;;;5.22;;
38513;SDS011;24282;48.400;10.808;2023-09-12T00:50:26;5.35;;;4.85;;
38513;SDS011;24282;48.400;10.808;2023-09-12T00:52:53;7.25;;;5.60;;
38513;SDS011;24282;48.400;10.808;2023-09-12T00:55:20;5.88;;;5.10;;
38513;SDS011;24282;48.400;10.808;2023-09-12T00:57:45;6.88;;;4.97;;
38513;SDS011;24282;48.400;10.808;2023-09-12T01:00:12;7.47;;;5.88;;
38513;SDS011;24282;48.400;10.808;2023-09-12T01:02:42;6.03;;;5.43;;
38513;SDS011;24282;48.400;10.808;2023-09-12T01:05:09;6.07;;;5.38;;
38513;SDS011;24282;48.400;10.808;2023-09-12T01:07:36;7.75;;;5.82;;
38513;SDS011;24282;48.400;10.808;2023-09-12T01:10:03;7.97;;;5.97;;
38513;SDS011;24282;48.400;10.808;2023-09-12T01:12:32;5.72;;;5.15;;
38513;SDS011;24282;48.400;10.808;2023-09-12T01:14:58;6.95;;;5.40;;
38513;SDS011;24282;48.400;10.808;2023-09-12T01:17:24;6.35;;;5.75;;
38513;SDS011;24282;48.400;10.808;2023-09-12T01:19:51;7.72;;;6.63;;
38513;SDS011;24282;48.400;10.808;2023-09-12T01:27:48;9.15;;;6.90;;
38513;SDS011;24282;48.400;10.808;2023-09-12T01:30:22;9.50;;;6.50;;
38513;SDS011;24282;48.400;10.808;2023-09-12T01:32:49;6.95;;;6.25;;
38513;SDS011;24282;48.400;10.808;2023-09-12T01:35:15;7.55;;;5.75;;
38513;SDS011;24282;48.400;10.808;2023-09-12T01:37:41;5.97;;;5.35;;
38513;SDS011;24282;48.400;10.808;2023-09-12T01:40:07;6.85;;;5.45;;
38513;SDS011;24282;48.400;10.808;2023-09-12T01:42:37;6.35;;;5.75;;
38513;SDS011;24282;48.400;10.808;2023-09-12T01:45:10;7.68;;;5.80;;
38513;SDS011;24282;48.400;10.808;2023-09-12T01:47:39;8.82;;;6.15;;
38513;SDS011;24282;48.400;10.808;2023-09-12T01:50:06;6.03;;;5.30;;
38513;SDS011;24282;48.400;10.808;2023-09-12T01:52:34;7.78;;;6.18;;
38513;SDS011;24282;48.400;10.808;2023-09-12T01:55:01;7.10;;;6.10;;
38513;SDS011;24282;48.400;10.808;2023-09-12T01:57:27;6.15;;;5.07;;
38513;SDS011;24282;48.400;10.808;2023-09-12T01:59:54;7.10;;;5.55;;
38513;SDS011;24282;48.400;10.808;2023-09-12T02:02:20;5.95;;;5.05;;
38513;SDS011;24282;48.400;10.808;2023-09-12T02:05:19;6.80;;;6.07;;
38513;SDS011;24282;48.400;10.808;2023-09-12T02:07:44;6.15;;;5.55;;
38513;SDS011;24282;48.400;10.808;2023-09-12T02:10:10;6.00;;;5.40;;
38513;SDS011;24282;48.400;10.808;2023-09-12T02:12:37;5.95;;;5.35;;
38513;SDS011;24282;48.400;10.808;2023-09-12T02:15:03;6.25;;;5.18;;
38513;SDS011;24282;48.400;10.808;2023-09-12T02:17:30;6.85;;;4.93;;
38513;SDS011;24282;48.400;10.808;2023-09-12T02:19:55;6.57;;;5.28;;
38513;SDS011;24282;48.400;10.808;2023-09-12T02:22:21;5.30;;;4.70;;
38513;SDS011;24282;48.400;10.808;2023-09-12T02:24:47;8.35;;;5.47;;
38513;SDS011;24282;48.400;10.808;2023-09-12T02:27:14;7.70;;;5.15;;
38513;SDS011;24282;48.400;10.808;2023-09-12T02:29:40;8.23;;;5.13;;
38513;SDS011;24282;48.400;10.808;2023-09-12T02:32:07;6.13;;;5.30;;
38513;SDS011;24282;48.400;10.808;2023-09-12T02:34:33;7.88;;;5.68;;
38513;SDS011;24282;48.400;10.808;2023-09-12T02:36:59;5.25;;;4.68;;
38513;SDS011;24282;48.400;10.808;2023-09-12T02:39:25;4.82;;;4.30;;
38513;SDS011;24282;48.400;10.808;2023-09-12T02:41:51;5.88;;;5.25;;
38513;SDS011;24282;48.400;10.808;2023-09-12T02:44:16;6.97;;;5.80;;
38513;SDS011;24282;48.400;10.808;2023-09-12T02:46:42;6.28;;;5.70;;
38513;SDS011;24282;48.400;10.808;2023-09-12T02:49:08;6.85;;;5.28;;
38513;SDS011;24282;48.400;10.808;2023-09-12T02:51:36;6.72;;;5.50;;
38513;SDS011;24282;48.400;10.808;2023-09-12T02:54:03;8.20;;;6.20;;
38513;SDS011;24282;48.400;10.808;2023-09-12T02:56:29;6.53;;;5.13;;
38513;SDS011;24282;48.400;10.808;2023-09-12T02:58:55;5.85;;;4.95;;
38513;SDS011;24282;48.400;10.808;2023-09-12T03:01:21;5.93;;;5.00;;
38513;SDS011;24282;48.400;10.808;2023-09-12T03:03:51;6.07;;;5.00;;
38513;SDS011;24282;48.400;10.808;2023-09-12T03:06:16;5.03;;;4.35;;
38513;SDS011;24282;48.400;10.808;2023-09-12T03:08:45;5.93;;;4.65;;
38513;SDS011;24282;48.400;10.808;2023-09-12T03:11:12;5.30;;;4.72;;
38513;SDS011;24282;48.400;10.808;2023-09-12T03:13:39;5.55;;;4.75;;
38513;SDS011;24282;48.400;10.808;2023-09-12T03:16:10;6.43;;;5.25;;
38513;SDS011;24282;48.400;10.808;2023-09-12T03:18:36;5.38;;;4.70;;
38513;SDS011;24282;48.400;10.808;2023-09-12T03:21:02;7.50;;;4.55;;
38513;SDS011;24282;48.400;10.808;2023-09-12T03:23:27;6.60;;;5.18;;
38513;SDS011;24282;48.400;10.808;2023-09-12T03:25:53;7.88;;;5.40;;
38513;SDS011;24282;48.400;10.808;2023-09-12T03:28:19;6.97;;;5.07;;
38513;SDS011;24282;48.400;10.808;2023-09-12T03:30:45;6.20;;;5.20;;
38513;SDS011;24282;48.400;10.808;2023-09-12T03:33:11;6.28;;;4.75;;
38513;SDS011;24282;48.400;10.808;2023-09-12T03:35:36;5.75;;;4.45;;
38513;SDS011;24282;48.400;10.808;2023-09-12T03:38:02;5.55;;;5.05;;
38513;SDS011;24282;48.400;10.808;2023-09-12T03:40:28;6.05;;;4.70;;
38513;SDS011;24282;48.400;10.808;2023-09-12T03:42:58;5.57;;;5.07;;
38513;SDS011;24282;48.400;10.808;2023-09-12T03:45:24;6.22;;;5.18;;
38513;SDS011;24282;48.400;10.808;2023-09-12T03:47:51;5.18;;;4.68;;
38513;SDS011;24282;48.400;10.808;2023-09-12T03:50:16;6.03;;;5.00;;
38513;SDS011;24282;48.400;10.808;2023-09-12T03:52:42;5.13;;;4.63;;
38513;SDS011;24282;48.400;10.808;2023-09-12T03:55:08;6.05;;;5.32;;
38513;SDS011;24282;48.400;10.808;2023-09-12T03:57:34;6.47;;;5.15;;
38513;SDS011;24282;48.400;10.808;2023-09-12T04:00:00;5.35;;;4.85;;
38513;SDS011;24282;48.400;10.808;2023-09-12T04:02:25;5.88;;;5.05;;
38513;SDS011;24282;48.400;10.808;2023-09-12T04:04:51;6.15;;;5.55;;
38513;SDS011;24282;48.400;10.808;2023-09-12T04:07:17;6.43;;;5.65;;
38513;SDS011;24282;48.400;10.808;2023-09-12T04:09:43;6.85;;;5.50;;
38513;SDS011;24282;48.400;10.808;2023-09-12T04:12:09;7.80;;;5.85;;
38513;SDS011;24282;48.400;10.808;2023-09-12T04:14:35;7.15;;;6.45;;
38513;SDS011;24282;48.400;10.808;2023-09-12T04:17:01;6.43;;;5.82;;
38513;SDS011;24282;48.400;10.808;2023-09-12T04:19:27;6.00;;;5.40;;
38513;SDS011;24282;48.400;10.808;2023-09-12T04:21:53;7.07;;;6.18;;
38513;SDS011;24282;48.400;10.808;2023-09-12T04:24:18;5.95;;;5.38;;
38513;SDS011;24282;48.400;10.808;2023-09-12T04:26:44;6.60;;;5.95;;
38513;SDS011;24282;48.400;10.808;2023-09-12T04:29:10;8.35;;;6.75;;
38513;SDS011;24282;48.400;10.808;2023-09-12T04:31:36;8.18;;;6.57;;
38513;SDS011;24282;48.400;10.808;2023-09-12T04:34:02;6.55;;;5.90;;
38513;SDS011;24282;48.400;10.808;2023-09-12T04:36:27;7.47;;;5.95;;
38513;SDS011;24282;48.400;10.808;2023-09-12T04:38:53;6.88;;;5.80;;
38513;SDS011;24282;48.400;10.808;2023-09-12T04:41:19;7.40;;;6.70;;
38513;SDS011;24282;48.400;10.808;2023-09-12T04:43:46;6.45;;;5.45;;
38513;SDS011;24282;48.400;10.808;2023-09-12T04:46:12;5.82;;;5.25;;
38513;SDS011;24282;48.400;10.808;2023-09-12T04:48:38;8.43;;;6.15;;
38513;SDS011;24282;48.400;10.808;2023-09-12T04:51:04;7.20;;;6.40;;
38513;SDS011;24282;48.400;10.808;2023-09-12T04:53:30;6.35;;;5.75;;
38513;SDS011;24282;48.400;10.808;2023-09-12T04:56:01;5.75;;;5.15;;
38513;SDS011;24282;48.400;10.808;2023-09-12T04:58:28;5.53;;;4.88;;
38513;SDS011;24282;48.400;10.808;2023-09-12T05:00:54;6.55;;;5.32;;
38513;SDS011;24282;48.400;10.808;2023-09-12T05:03:21;6.07;;;5.13;;
38513;SDS011;24282;48.400;10.808;2023-09-12T05:05:48;6.28;;;5.22;;
38513;SDS011;24282;48.400;10.808;2023-09-12T05:08:15;5.97;;;5.38;;
38513;SDS011;24282;48.400;10.808;2023-09-12T05:10:46;6.38;;;5.63;;
38513;SDS011;24282;48.400;10.808;2023-09-12T05:13:12;6.80;;;6.10;;
38513;SDS011;24282;48.400;10.808;2023-09-12T05:15:38;6.32;;;5.72;;
38513;SDS011;24282;48.400;10.808;2023-09-12T05:18:06;7.10;;;6.40;;
38513;SDS011;24282;48.400;10.808;2023-09-12T05:20:32;8.40;;;5.90;;
38513;SDS011;24282;48.400;10.808;2023-09-12T05:22:58;5.93;;;5.32;;
38513;SDS011;24282;48.400;10.808;2023-09-12T05:25:24;6.15;;;5.45;;
38513;SDS011;24282;48.400;10.808;2023-09-12T05:27:51;6.93;;;6.22;;
38513;SDS011;24282;48.400;10.808;2023-09-12T05:30:17;7.97;;;6.32;;
38513;SDS011;24282;48.400;10.808;2023-09-12T05:32:43;9.32;;;6.70;;
38513;SDS011;24282;48.400;10.808;2023-09-12T05:35:09;5.68;;;5.18;;
38513;SDS011;24282;48.400;10.808;2023-09-12T05:37:35;6.75;;;6.13;;
38513;SDS011;24282;48.400;10.808;2023-09-12T05:40:01;6.57;;;5.95;;
38513;SDS011;24282;48.400;10.808;2023-09-12T05:42:27;6.57;;;5.97;;
38513;SDS011;24282;48.400;10.808;2023-09-12T05:44:52;7.00;;;5.97;;
38513;SDS011;24282;48.400;10.808;2023-09-12T05:47:19;6.60;;;5.68;;
38513;SDS011;24282;48.400;10.808;2023-09-12T05:49:46;6.47;;;5.88;;
38513;SDS011;24282;48.400;10.808;2023-09-12T05:52:12;7.40;;;6.53;;
38513;SDS011;24282;48.400;10.808;2023-09-12T05:54:38;6.03;;;5.40;;
38513;SDS011;24282;48.400;10.808;2023-09-12T05:57:07;6.97;;;5.60;;
38513;SDS011;24282;48.400;10.808;2023-09-12T05:59:37;5.72;;;5.05;;
38513;SDS011;24282;48.400;10.808;2023-09-12T06:02:04;9.25;;;5.97;;
38513;SDS011;24282;48.400;10.808;2023-09-12T06:04:34;7.15;;;6.38;;
38513;SDS011;24282;48.400;10.808;2023-09-12T06:07:01;6.68;;;5.75;;
38513;SDS011;24282;48.400;10.808;2023-09-12T06:09:28;9.65;;;8.48;;
38513;SDS011;24282;48.400;10.808;2023-09-12T06:11:54;9.13;;;7.28;;
38513;SDS011;24282;48.400;10.808;2023-09-12T06:14:19;8.30;;;7.00;;
38513;SDS011;24282;48.400;10.808;2023-09-12T06:16:45;8.02;;;7.22;;
38513;SDS011;24282;48.400;10.808;2023-09-12T06:19:11;8.55;;;7.75;;
38513;SDS011;24282;48.400;10.808;2023-09-12T06:21:38;8.40;;;7.60;;
38513;SDS011;24282;48.400;10.808;2023-09-12T06:24:08;9.98;;;7.65;;
38513;SDS011;24282;48.400;10.808;2023-09-12T06:26:35;8.63;;;7.82;;
38513;SDS011;24282;48.400;10.808;2023-09-12T06:29:01;9.77;;;8.35;;
38513;SDS011;24282;48.400;10.808;2023-09-12T06:31:27;10.73;;;8.38;;
38513;SDS011;24282;48.400;10.808;2023-09-12T06:33:53;8.77;;;7.35;;
38513;SDS011;24282;48.400;10.808;2023-09-12T06:36:19;9.00;;;8.10;;
38513;SDS011;24282;48.400;10.808;2023-09-12T06:38:44;10.35;;;9.38;;
38513;SDS011;24282;48.400;10.808;2023-09-12T06:41:10;10.35;;;9.30;;
38513;SDS011;24282;48.400;10.808;2023-09-12T06:43:36;11.15;;;10.02;;
38513;SDS011;24282;48.400;10.808;2023-09-12T06:46:01;12.48;;;11.27;;
38513;SDS011;24282;48.400;10.808;2023-09-12T06:48:27;12.05;;;10.85;;
38513;SDS011;24282;48.400;10.808;2023-09-12T06:50:54;11.88;;;10.68;;
38513;SDS011;24282;48.400;10.808;2023-09-12T06:53:20;11.93;;;10.73;;
38513;SDS011;24282;48.400;10.808;2023-09-12T06:55:45;13.57;;;10.27;;
38513;SDS011;24282;48.400;10.808;2023-09-12T06:58:11;13.88;;;10.98;;
38513;SDS011;24282;48.400;10.808;2023-09-12T07:00:37;12.10;;;10.85;;
38513;SDS011;24282;48.400;10.808;2023-09-12T07:03:03;11.52;;;10.43;;
38513;SDS011;24282;48.400;10.808;2023-09-12T07:05:29;11.32;;;10.23;;
38513;SDS011;24282;48.400;10.808;2023-09-12T07:07:54;11.45;;;10.15;;
38513;SDS011;24282;48.400;10.808;2023-09-12T07:10:20;11.50;;;10.40;;
38513;SDS011;24282;48.400;10.808;2023-09-12T07:12:46;11.00;;;9.90;;
38513;SDS011;24282;48.400;10.808;2023-09-12T07:15:12;9.65;;;8.65;;
38513;SDS011;24282;48.400;10.808;2023-09-12T07:17:38;9.80;;;8.90;;
38513;SDS011;24282;48.400;10.808;2023-09-12T07:20:04;10.43;;;8.88;;
38513;SDS011;24282;48.400;10.808;2023-09-12T07:22:35;9.77;;;8.85;;
38513;SDS011;24282;48.400;10.808;2023-09-12T07:25:00;9.40;;;8.50;;
38513;SDS011;24282;48.400;10.808;2023-09-12T07:27:26;10.18;;;9.18;;
38513;SDS011;24282;48.400;10.808;2023-09-12T07:29:53;9.38;;;8.48;;
38513;SDS011;24282;48.400;10.808;2023-09-12T07:32:19;10.15;;;8.48;;
38513;SDS011;24282;48.400;10.808;2023-09-12T07:34:46;9.98;;;8.98;;
38513;SDS011;24282;48.400;10.808;2023-09-12T07:37:14;9.80;;;8.82;;
38513;SDS011;24282;48.400;10.808;2023-09-12T07:39:39;10.00;;;9.10;;
38513;SDS011;24282;48.400;10.808;2023-09-12T07:42:05;8.95;;;8.15;;
38513;SDS011;24282;48.400;10.808;2023-09-12T07:44:31;9.15;;;8.20;;
38513;SDS011;24282;48.400;10.808;2023-09-12T07:46:56;9.38;;;8.40;;
38513;SDS011;24282;48.400;10.808;2023-09-12T07:49:22;10.48;;;8.77;;
38513;SDS011;24282;48.400;10.808;2023-09-12T07:51:51;9.32;;;8.43;;
38513;SDS011;24282;48.400;10.808;2023-09-12T07:54:17;9.05;;;7.78;;
38513;SDS011;24282;48.400;10.808;2023-09-12T07:56:43;8.70;;;7.90;;
38513;SDS011;24282;48.400;10.808;2023-09-12T07:59:09;7.88;;;7.07;;
38513;SDS011;24282;48.400;10.808;2023-09-12T08:01:37;9.55;;;8.63;;
38513;SDS011;24282;48.400;10.808;2023-09-12T08:04:03;8.90;;;8.02;;
38513;SDS011;24282;48.400;10.808;2023-09-12T08:06:30;9.20;;;8.23;;
38513;SDS011;24282;48.400;10.808;2023-09-12T08:08:56;9.20;;;8.25;;
38513;SDS011;24282;48.400;10.808;2023-09-12T08:11:21;8.63;;;7.93;;
38513;SDS011;24282;48.400;10.808;2023-09-12T08:13:50;8.93;;;8.02;;
38513;SDS011;24282;48.400;10.808;2023-09-12T08:16:16;9.48;;;8.68;;
38513;SDS011;24282;48.400;10.808;2023-09-12T08:18:42;10.25;;;9.35;;
38513;SDS011;24282;48.400;10.808;2023-09-12T08:21:07;9.60;;;8.70;;
38513;SDS011;24282;48.400;10.808;2023-09-12T08:23:35;9.45;;;8.65;;
38513;SDS011;24282;48.400;10.808;2023-09-12T08:26:01;8.68;;;7.88;;
38513;SDS011;24282;48.400;10.808;2023-09-12T08:28:27;9.23;;;8.43;;
38513;SDS011;24282;48.400;10.808;2023-09-12T08:30:52;9.38;;;8.48;;
38513;SDS011;24282;48.400;10.808;2023-09-12T08:33:18;9.45;;;8.32;;
38513;SDS011;24282;48.400;10.808;2023-09-12T08:35:44;9.25;;;8.40;;
38513;SDS011;24282;48.400;10.808;2023-09-12T08:38:10;9.10;;;8.30;;
38513;SDS011;24282;48.400;10.808;2023-09-12T08:40:37;9.63;;;8.48;;
38513;SDS011;24282;48.400;10.808;2023-09-12T08:43:03;9.65;;;8.10;;
38513;SDS011;24282;48.400;10.808;2023-09-12T08:45:29;8.60;;;7.80;;
38513;SDS011;24282;48.400;10.808;2023-09-12T08:47:56;9.23;;;8.32;;
38513;SDS011;24282;48.400;10.808;2023-09-12T08:50:24;8.60;;;7.70;;
38513;SDS011;24282;48.400;10.808;2023-09-12T08:52:50;7.82;;;7.13;;
38513;SDS011;24282;48.400;10.808;2023-09-12T08:55:16;8.77;;;7.88;;
38513;SDS011;24282;48.400;10.808;2023-09-12T08:57:43;8.38;;;7.20;;
38513;SDS011;24282;48.400;10.808;2023-09-12T09:00:12;9.07;;;7.03;;
38513;SDS011;24282;48.400;10.808;2023-09-12T09:02:42;7.93;;;7.22;;
38513;SDS011;24282;48.400;10.808;2023-09-12T09:05:10;7.57;;;6.88;;
38513;SDS011;24282;48.400;10.808;2023-09-12T09:07:36;7.28;;;6.57;;
38513;SDS011;24282;48.400;10.808;2023-09-12T09:10:15;7.40;;;6.70;;
38513;SDS011;24282;48.400;10.808;2023-09-12T09:12:43;7.15;;;6.55;;
38513;SDS011;24282;48.400;10.808;2023-09-12T09:15:25;6.95;;;6.30;;
38513;SDS011;24282;48.400;10.808;2023-09-12T09:17:56;6.78;;;6.18;;
38513;SDS011;24282;48.400;10.808;2023-09-12T09:20:29;6.40;;;5.80;;
38513;SDS011;24282;48.400;10.808;2023-09-12T09:23:29;6.65;;;6.05;;
38513;SDS011;24282;48.400;10.808;2023-09-12T09:25:51;8.25;;;5.80;;
38513;SDS011;24282;48.400;10.808;2023-09-12T09:28:21;6.53;;;5.63;;
38513;SDS011;24282;48.400;10.808;2023-09-12T09:30:50;6.28;;;4.93;;
38513;SDS011;24282;48.400;10.808;2023-09-12T09:33:18;6.07;;;5.18;;
38513;SDS011;24282;48.400;10.808;2023-09-12T09:35:45;9.40;;;7.78;;
38513;SDS011;24282;48.400;10.808;2023-09-12T09:38:12;7.90;;;6.28;;
38513;SDS011;24282;48.400;10.808;2023-09-12T09:40:41;7.15;;;6.07;;
38513;SDS011;24282;48.400;10.808;2023-09-12T09:43:08;6.65;;;5.97;;
38513;SDS011;24282;48.400;10.808;2023-09-12T09:45:42;6.20;;;5.60;;
38513;SDS011;24282;48.400;10.808;2023-09-12T09:48:09;6.07;;;5.47;;
38513;SDS011;24282;48.400;10.808;2023-09-12T09:50:35;5.40;;;4.90;;
38513;SDS011;24282;48.400;10.808;2023-09-12T09:53:04;6.22;;;4.82;;
38513;SDS011;24282;48.400;10.808;2023-09-12T09:55:33;6.00;;;5.50;;
38513;SDS011;24282;48.400;10.808;2023-09-12T09:57:59;5.78;;;5.28;;
38513;SDS011;24282;48.400;10.808;2023-09-12T10:00:25;5.82;;;5.25;;
38513;SDS011;24282;48.400;10.808;2023-09-12T10:02:52;5.68;;;5.15;;
38513;SDS011;24282;48.400;10.808;2023-09-12T10:05:20;5.68;;;4.85;;
38513;SDS011;24282;48.400;10.808;2023-09-12T10:07:48;5.50;;;4.80;;
38513;SDS011;24282;48.400;10.808;2023-09-12T10:10:16;5.55;;;4.90;;
38513;SDS011;24282;48.400;10.808;2023-09-12T10:12:45;5.50;;;4.97;;
38513;SDS011;24282;48.400;10.808;2023-09-12T10:15:14;4.95;;;4.45;;
38513;SDS011;24282;48.400;10.808;2023-09-12T10:17:42;5.65;;;5.13;;
38513;SDS011;24282;48.400;10.808;2023-09-12T10:20:14;5.90;;;5.10;;
38513;SDS011;24282;48.400;10.808;2023-09-12T10:23:26;6.38;;;5.78;;
38513;SDS011;24282;48.400;10.808;2023-09-12T10:25:36;5.90;;;5.32;;
38513;SDS011;24282;48.400;10.808;2023-09-12T10:28:03;7.28;;;5.80;;
38513;SDS011;24282;48.400;10.808;2023-09-12T10:30:30;5.85;;;5.35;;
38513;SDS011;24282;48.400;10.808;2023-09-12T10:32:57;5.95;;;5.40;;
38513;SDS011;24282;48.400;10.808;2023-09-12T10:35:25;6.53;;;5.35;;
38513;SDS011;24282;48.400;10.808;2023-09-12T10:37:52;5.68;;;5.18;;
38513;SDS011;24282;48.400;10.808;2023-09-12T10:40:20;7.45;;;6.75;;
38513;SDS011;24282;48.400;10.808;2023-09-12T10:42:46;6.55;;;5.95;;
38513;SDS011;24282;48.400;10.808;2023-09-12T10:45:13;7.35;;;6.00;;
38513;SDS011;24282;48.400;10.808;2023-09-12T10:47:39;6.90;;;5.75;;
38513;SDS011;24282;48.400;10.808;2023-09-12T10:50:06;10.25;;;6.32;;
38513;SDS011;24282;48.400;10.808;2023-09-12T10:52:33;6.93;;;6.25;;
38513;SDS011;24282;48.400;10.808;2023-09-12T10:55:03;6.53;;;5.93;;
38513;SDS011;24282;48.400;10.808;2023-09-12T10:57:29;6.43;;;5.22;;
38513;SDS011;24282;48.400;10.808;2023-09-12T11:02:32;6.25;;;5.50;;
38513;SDS011;24282;48.400;10.808;2023-09-12T11:05:00;9.20;;;6.07;;
38513;SDS011;24282;48.400;10.808;2023-09-12T11:12:44;6.50;;;5.90;;
38513;SDS011;24282;48.400;10.808;2023-09-12T11:15:10;7.10;;;5.63;;
38513;SDS011;24282;48.400;10.808;2023-09-12T11:17:40;6.28;;;5.57;;
38513;SDS011;24282;48.400;10.808;2023-09-12T11:20:07;5.90;;;5.30;;
38513;SDS011;24282;48.400;10.808;2023-09-12T11:22:35;5.65;;;5.15;;
38513;SDS011;24282;48.400;10.808;2023-09-12T11:25:16;6.88;;;5.53;;
38513;SDS011;24282;48.400;10.808;2023-09-12T11:30:18;5.82;;;5.18;;
38513;SDS011;24282;48.400;10.808;2023-09-12T11:32:49;5.93;;;4.97;;
38513;SDS011;24282;48.400;10.808;2023-09-12T11:35:16;5.47;;;4.82;;
38513;SDS011;24282;48.400;10.808;2023-09-12T11:37:54;5.78;;;5.18;;
38513;SDS011;24282;48.400;10.808;2023-09-12T11:40:25;5.13;;;4.63;;
38513;SDS011;24282;48.400;10.808;2023-09-12T11:43:06;5.70;;;5.00;;
38513;SDS011;24282;48.400;10.808;2023-09-12T11:45:33;5.07;;;4.10;;
38513;SDS011;24282;48.400;10.808;2023-09-12T11:48:00;5.28;;;4.03;;
38513;SDS011;24282;48.400;10.808;2023-09-12T11:50:34;5.25;;;4.15;;
38513;SDS011;24282;48.400;10.808;2023-09-12T11:53:10;6.70;;;4.25;;
38513;SDS011;24282;48.400;10.808;2023-09-12T11:55:43;6.25;;;4.47;;
38513;SDS011;24282;48.400;10.808;2023-09-12T11:58:11;6.22;;;4.47;;
38513;SDS011;24282;48.400;10.808;2023-09-12T12:00:44;4.57;;;4.13;;
38513;SDS011;24282;48.400;10.808;2023-09-12T12:03:18;4.68;;;3.67;;
38513;SDS011;24282;48.400;10.808;2023-09-12T12:05:45;5.30;;;4.00;;
38513;SDS011;24282;48.400;10.808;2023-09-12T12:08:11;6.43;;;4.88;;
38513;SDS011;24282;48.400;10.808;2023-09-12T12:10:38;5.43;;;3.67;;
38513;SDS011;24282;48.400;10.808;2023-09-12T12:13:05;6.45;;;4.30;;
38513;SDS011;24282;48.400;10.808;2023-09-12T12:15:31;5.22;;;4.20;;
38513;SDS011;24282;48.400;10.808;2023-09-12T12:17:57;3.90;;;3.38;;
38513;SDS011;24282;48.400;10.808;2023-09-12T12:20:23;4.05;;;3.10;;
38513;SDS011;24282;48.400;10.808;2023-09-12T12:22:49;5.75;;;3.75;;
38513;SDS011;24282;48.400;10.808;2023-09-12T12:25:18;5.03;;;3.80;;
38513;SDS011;24282;48.400;10.808;2023-09-12T12:27:44;6.97;;;3.65;;
38513;SDS011;24282;48.400;10.808;2023-09-12T12:30:10;6.93;;;3.92;;
38513;SDS011;24282;48.400;10.808;2023-09-12T12:32:44;4.75;;;3.60;;
38513;SDS011;24282;48.400;10.808;2023-09-12T12:35:18;7.03;;;3.80;;
38513;SDS011;24282;48.400;10.808;2023-09-12T12:37:44;7.50;;;3.63;;
38513;SDS011;24282;48.400;10.808;2023-09-12T12:40:14;6.53;;;3.67;;
38513;SDS011;24282;48.400;10.808;2023-09-12T12:42:41;4.93;;;3.38;;
38513;SDS011;24282;48.400;10.808;2023-09-12T12:45:11;4.90;;;3.60;;
38513;SDS011;24282;48.400;10.808;2023-09-12T12:47:38;4.27;;;3.37;;
38513;SDS011;24282;48.400;10.808;2023-09-12T12:50:14;3.88;;;3.20;;
38513;SDS011;24282;48.400;10.808;2023-09-12T12:52:42;4.75;;;3.20;;
38513;SDS011;24282;48.400;10.808;2023-09-12T12:55:11;4.80;;;3.42;;
38513;SDS011;24282;48.400;10.808;2023-09-12T12:57:38;3.83;;;3.45;;
38513;SDS011;24282;48.400;10.808;2023-09-12T13:00:08;4.15;;;3.40;;
38513;SDS011;24282;48.400;10.808;2023-09-12T13:02:38;5.50;;;4.28;;
38513;SDS011;24282;48.400;10.808;2023-09-12T13:05:06;4.60;;;3.55;;
38513;SDS011;24282;48.400;10.808;2023-09-12T13:07:44;6.05;;;3.70;;
38513;SDS011;24282;48.400;10.808;2023-09-12T13:10:10;4.20;;;3.40;;
38513;SDS011;24282;48.400;10.808;2023-09-12T13:12:35;6.43;;;3.20;;
38513;SDS011;24282;48.400;10.808;2023-09-12T13:15:03;4.47;;;3.40;;
38513;SDS011;24282;48.400;10.808;2023-09-12T13:17:29;3.28;;;2.97;;
38513;SDS011;24282;48.400;10.808;2023-09-12T13:19:55;3.75;;;3.10;;
38513;SDS011;24282;48.400;10.808;2023-09-12T13:22:21;5.53;;;3.40;;
38513;SDS011;24282;48.400;10.808;2023-09-12T13:24:47;5.38;;;3.63;;
38513;SDS011;24282;48.400;10.808;2023-09-12T13:27:13;5.05;;;3.75;;
38513;SDS011;24282;48.400;10.808;2023-09-12T13:29:39;4.90;;;3.33;;
38513;SDS011;24282;48.400;10.808;2023-09-12T13:32:05;4.40;;;3.45;;
38513;SDS011;24282;48.400;10.808;2023-09-12T13:34:30;4.45;;;3.40;;
38513;SDS011;24282;48.400;10.808;2023-09-12T13:36:56;5.35;;;3.88;;
38513;SDS011;24282;48.400;10.808;2023-09-12T13:39:23;4.78;;;3.42;;
38513;SDS011;24282;48.400;10.808;2023-09-12T13:41:49;3.90;;;3.33;;
38513;SDS011;24282;48.400;10.808;2023-09-12T13:44:16;4.75;;;3.50;;
38513;SDS011;24282;48.400;10.808;2023-09-12T13:46:42;4.70;;;3.47;;
38513;SDS011;24282;48.400;10.808;2023-09-12T13:49:09;4.65;;;3.60;;
38513;SDS011;24282;48.400;10.808;2023-09-12T13:51:35;3.80;;;3.20;;
38513;SDS011;24282;48.400;10.808;2023-09-12T13:54:01;3.53;;;2.80;;
38513;SDS011;24282;48.400;10.808;2023-09-12T13:56:28;3.92;;;3.05;;
38513;SDS011;24282;48.400;10.808;2023-09-12T13:58:53;7.25;;;3.78;;
38513;SDS011;24282;48.400;10.808;2023-09-12T14:01:19;4.72;;;3.50;;
38513;SDS011;24282;48.400;10.808;2023-09-12T14:03:45;4.45;;;3.60;;
38513;SDS011;24282;48.400;10.808;2023-09-12T14:06:11;4.47;;;3.50;;
38513;SDS011;24282;48.400;10.808;2023-09-12T14:08:36;4.28;;;3.30;;
38513;SDS011;24282;48.400;10.808;2023-09-12T14:11:02;4.40;;;3.30;;
38513;SDS011;24282;48.400;10.808;2023-09-12T14:13:28;4.10;;;3.15;;
38513;SDS011;24282;48.400;10.808;2023-09-12T14:15:54;4.18;;;3.03;;
38513;SDS011;24282;48.400;10.808;2023-09-12T14:18:19;3.63;;;3.25;;
38513;SDS011;24282;48.400;10.808;2023-09-12T14:20:45;7.45;;;3.83;;
38513;SDS011;24282;48.400;10.808;2023-09-12T14:23:11;5.32;;;3.63;;
38513;SDS011;24282;48.400;10.808;2023-09-12T14:25:37;4.88;;;2.92;;
38513;SDS011;24282;48.400;10.808;2023-09-12T14:28:03;4.93;;;3.65;;
38513;SDS011;24282;48.400;10.808;2023-09-12T14:30:30;5.00;;;3.20;;
38513;SDS011;24282;48.400;10.808;2023-09-12T14:33:01;3.78;;;3.40;;
38513;SDS011;24282;48.400;10.808;2023-09-12T14:35:27;5.88;;;3.63;;
38513;SDS011;24282;48.400;10.808;2023-09-12T14:37:53;6.47;;;3.83;;
38513;SDS011;24282;48.400;10.808;2023-09-12T14:40:19;5.97;;;3.47;;
38513;SDS011;24282;48.400;10.808;2023-09-12T14:42:45;3.90;;;2.97;;
38513;SDS011;24282;48.400;10.808;2023-09-12T14:45:11;4.85;;;3.47;;
38513;SDS011;24282;48.400;10.808;2023-09-12T14:47:36;5.97;;;3.05;;
38513;SDS011;24282;48.400;10.808;2023-09-12T14:50:02;5.18;;;3.45;;